地図

経路データ

SID SEASON NUMBER BASIN SUBBASIN NAME ISO_TIME NATURE LAT LON WMO_WIND WMO_PRES WMO_AGENCY TRACK_TYPE DIST2LAND LANDFALL IFLAG USA_AGENCY USA_ATCF_ID USA_LAT USA_LON USA_RECORD USA_STATUS USA_WIND USA_PRES USA_SSHS USA_R34_NE USA_R34_SE USA_R34_SW USA_R34_NW USA_R50_NE USA_R50_SE USA_R50_SW USA_R50_NW USA_R64_NE USA_R64_SE USA_R64_SW USA_R64_NW USA_POCI USA_ROCI USA_RMW USA_EYE TOKYO_LAT TOKYO_LON TOKYO_GRADE TOKYO_WIND TOKYO_PRES TOKYO_R50_DIR TOKYO_R50_LONG TOKYO_R50_SHORT TOKYO_R30_DIR TOKYO_R30_LONG TOKYO_R30_SHORT TOKYO_LAND CMA_LAT CMA_LON CMA_CAT CMA_WIND CMA_PRES HKO_LAT HKO_LON HKO_CAT HKO_WIND HKO_PRES NEWDELHI_LAT NEWDELHI_LON NEWDELHI_GRADE NEWDELHI_WIND NEWDELHI_PRES NEWDELHI_CI NEWDELHI_DP NEWDELHI_POCI REUNION_LAT REUNION_LON REUNION_TYPE REUNION_WIND REUNION_PRES REUNION_TNUM REUNION_CI REUNION_RMW REUNION_R34_NE REUNION_R34_SE REUNION_R34_SW REUNION_R34_NW REUNION_R50_NE REUNION_R50_SE REUNION_R50_SW REUNION_R50_NW REUNION_R64_NE REUNION_R64_SE REUNION_R64_SW REUNION_R64_NW BOM_LAT BOM_LON BOM_TYPE BOM_WIND BOM_PRES BOM_TNUM BOM_CI BOM_RMW BOM_R34_NE BOM_R34_SE BOM_R34_SW BOM_R34_NW BOM_R50_NE BOM_R50_SE BOM_R50_SW BOM_R50_NW BOM_R64_NE BOM_R64_SE BOM_R64_SW BOM_R64_NW BOM_ROCI BOM_POCI BOM_EYE BOM_POS_METHOD BOM_PRES_METHOD NADI_LAT NADI_LON NADI_CAT NADI_WIND NADI_PRES WELLINGTON_LAT WELLINGTON_LON WELLINGTON_WIND WELLINGTON_PRES DS824_LAT DS824_LON DS824_STAGE DS824_WIND DS824_PRES TD9636_LAT TD9636_LON TD9636_STAGE TD9636_WIND TD9636_PRES TD9635_LAT TD9635_LON TD9635_WIND TD9635_PRES TD9635_ROCI NEUMANN_LAT NEUMANN_LON NEUMANN_CLASS NEUMANN_WIND NEUMANN_PRES MLC_LAT MLC_LON MLC_CLASS MLC_WIND MLC_PRES USA_GUST BOM_GUST BOM_GUST_PER REUNION_GUST REUNION_GUST_PER USA_SEAHGT USA_SEARAD_NE USA_SEARAD_SE USA_SEARAD_SW USA_SEARAD_NW STORM_SPEED STORM_DIR
1953285N09161 1953 69 WP MM ALICE 1953-10-11 12:00:00 TS 8.60000 161.000 1006 tokyo main 1666 1639 OOO______OOO__ jtwc_wp WP191953 9.40000 160.000 35 0 7.00000 163.000 2 1006 0 0 0 7.00000 163.000 1 29 1007 9.40000 160.000 TC 35 9.40000 160.000 2 35 9.40000 160.000 35 1006 180 17 290
1953285N09161 1953 69 WP MM ALICE 1953-10-11 15:00:00 TS 8.89075 160.176 main 1642 1613 PPP______PPP__ WP191953 9.61801 159.175 35 0 7.44261 162.143 2 1005 0 0 7.45774 162.130 1 29 1005 9.61801 159.175 TC 35 9.59012 159.257 2 35 9.61801 159.175 35 1006 180 17 289
1953285N09161 1953 69 WP MM ALICE 1953-10-11 18:00:00 TS 9.16060 159.352 1004 tokyo main 1623 1592 OOO______OPO__ jtwc_wp WP191953 9.80000 158.400 35 0 7.90000 161.200 2 1004 0 0 0 7.90000 161.200 1 29 1004 9.80000 158.400 TC 35 9.76359 158.511 2 35 9.80000 158.400 35 1006 180 17 287
1953285N09161 1953 69 WP MM ALICE 1953-10-11 21:00:00 TS 9.39321 158.528 main 1591 1570 PPP______PPP__ WP191953 9.92216 157.700 35 0 8.37266 160.135 2 1004 0 0 8.31489 160.172 1 29 1004 9.92216 157.700 TC 35 9.90526 157.760 2 35 9.92216 157.700 35 1005 180 17 285
1953285N09161 1953 69 WP MM ALICE 1953-10-12 00:00:00 TS 9.58333 157.700 1004 tokyo main 1570 1540 OOO______OOO__ jtwc_wp WP191953 10.0000 157.000 35 0 8.80000 159.100 2 1004 0 0 0 8.70000 159.100 1 29 1004 10.0000 157.000 TC 35 10.0000 157.000 2 35 10.0000 157.000 35 1005 180 17 282
1953285N09161 1953 69 WP MM ALICE 1953-10-12 03:00:00 TS 9.73971 156.867 main 1540 1514 PPP______PPP__ WP191953 10.0575 156.200 35 0 9.13652 158.330 2 1004 0 0 9.08726 158.043 1 29 1004 10.0575 156.200 TC 35 10.0419 156.233 2 35 10.0575 156.200 35 1005 180 17 280
1953285N09161 1953 69 WP MM ALICE 1953-10-12 06:00:00 TS 9.86037 156.028 1004 tokyo main 1520 1490 OOO______OPO__ jtwc_wp WP191953 10.1000 155.400 35 0 9.40000 157.500 2 1004 0 0 0 9.40000 157.000 1 29 1004 10.1000 155.400 TC 35 10.0622 155.469 2 35 10.1000 155.400 35 1005 180 17 277
1953285N09161 1953 69 WP MM ALICE 1953-10-12 09:00:00 TS 9.95129 155.186 main 1500 1474 PPP______PPP__ WP191953 10.1272 154.692 35 0 9.63784 156.303 2 1004 0 0 9.58694 156.015 1 29 1004 10.1272 154.692 TC 35 10.1014 154.720 2 35 10.1272 154.692 35 1005 180 17 276
1953285N09161 1953 69 WP MM ALICE 1953-10-12 12:00:00 TS 10.0500 154.333 1004 tokyo main 1482 1462 OOO______OOO__ jtwc_wp WP191953 10.2000 154.000 35 0 9.80000 155.000 2 1004 0 0 0 9.70000 155.000 1 29 1004 10.2000 154.000 TC 35 10.2000 154.000 2 35 10.2000 154.000 35 1005 180 17 277
1953285N09161 1953 69 WP MM ALICE 1953-10-12 15:00:00 TS 10.1665 153.447 main 1471 1465 PPP______PPP__ WP191953 10.3551 153.228 37 0 9.79704 153.826 2 1003 0 0 9.74748 153.857 1 29 1003 10.3551 153.228 TC 37 10.3894 153.317 2 36 10.3551 153.228 36 1004 180 17 281
1953285N09161 1953 69 WP MM ALICE 1953-10-12 18:00:00 TS 10.3740 152.594 1003 tokyo main 1479 1477 OOO______OPO__ jtwc_wp WP191953 10.6000 152.500 40 0 9.90000 152.700 2 1003 0 0 0 9.90000 152.700 1 29 1003 10.6000 152.500 TC 40 10.6442 152.662 2 37 10.6000 152.500 38 1004 180 17 290
1953285N09161 1953 69 WP MM ALICE 1953-10-12 21:00:00 TS 10.7503 151.805 main 1515 1514 PPP______PPP__ WP191953 10.9271 151.935 40 0 10.4130 151.466 2 1001 0 0 10.3553 151.531 1 29 1001 10.9271 151.935 TC 40 10.9519 152.026 2 38 10.9271 151.935 39 1003 180 17 299
1953285N09161 1953 69 WP MM ALICE 1953-10-13 00:00:00 TS 11.1833 151.117 1000 tokyo main 1545 1542 OOO______OOO__ jtwc_wp WP191953 11.3000 151.400 40 0 11.0000 150.500 2 1000 0 0 0 10.9000 150.600 1 29 1000 11.3000 151.400 TC 40 11.3000 151.400 2 40 11.3000 151.400 40 1003 180 15 303
1953285N09161 1953 69 WP MM ALICE 1953-10-13 03:00:00 TS 11.5375 150.564 main 1564 1564 PPP______PPP__ WP191953 11.6350 150.757 40 0 11.3141 150.167 2 1000 0 0 11.3142 150.167 1 29 1000 11.6350 150.757 TC 40 11.6919 150.776 2 40 11.6350 150.757 40 1003 180 13 305
1953285N09161 1953 69 WP MM ALICE 1953-10-13 06:00:00 TS 11.9024 150.060 1000 tokyo main 1596 1594 OOO______OPO__ jtwc_wp WP191953 12.0000 150.100 40 0 11.6000 150.000 2 1000 0 0 0 11.7000 149.900 1 29 1000 12.0000 150.100 TC 40 12.1141 150.158 2 40 12.0000 150.100 40 1003 180 13 308
1953285N09161 1953 69 WP MM ALICE 1953-10-13 09:00:00 TS 12.3405 149.506 main 1630 1630 PPP______PPP__ WP191953 12.4572 149.507 40 0 12.0425 149.518 2 1000 0 0 12.0998 149.460 1 33 1000 12.4572 149.507 TC 40 12.5293 149.536 2 40 12.4572 149.507 40 1002 180 14 307
1953285N09161 1953 69 WP MM ALICE 1953-10-13 12:00:00 TS 12.7667 148.900 1000 tokyo main 1677 1676 OOO______OOO__ jtwc_wp WP191953 12.9000 148.900 40 0 12.5000 148.900 2 1000 0 0 0 12.5000 148.900 2 38 1000 12.9000 148.900 TC 40 12.9000 148.900 2 40 12.9000 148.900 40 1002 180 15 302
1953285N09161 1953 69 WP MM ALICE 1953-10-13 15:00:00 TS 13.1286 148.205 main 1705 1705 PPP______PPP__ WP191953 13.2450 148.207 40 0 12.8950 148.215 2 1000 0 0 12.9376 148.180 2 38 1000 13.2450 148.207 TC 40 13.2038 148.211 2 41 13.2450 148.207 40 1001 180 15 295
1953285N09161 1953 69 WP MM ALICE 1953-10-13 18:00:00 TS 13.4092 147.485 1000 tokyo main 1736 1736 OOO______OPO__ jtwc_wp WP191953 13.5000 147.500 40 0 13.2000 147.500 2 1000 0 0 0 13.3000 147.400 2 38 1000 13.5000 147.500 TC 40 13.4552 147.512 2 42 13.5000 147.500 40 1001 180 15 289
1953285N09161 1953 69 WP MM ALICE 1953-10-13 21:00:00 TS 13.6023 146.786 main 1758 1758 PPP______PPP__ WP191953 13.6875 146.812 42 0 13.3950 146.812 2 1000 0 0 13.5026 146.632 2 43 1000 13.6875 146.812 TC 42 13.6539 146.833 2 43 13.6875 146.812 42 1000 180 13 283
1953285N09161 1953 69 WP MM ALICE 1953-10-14 00:00:00 TS 13.7167 146.167 1000 tokyo main 1770 1770 OOO______OOO__ jtwc_wp WP191953 13.8000 146.200 45 0 13.5000 146.200 9 1000 0 0 0 13.6000 146.000 3 48 1000 13.8000 146.200 TC 45 13.8000 146.200 2 45 13.8000 146.200 45 1000 180 11 280
1953285N09161 1953 69 WP MM ALICE 1953-10-14 03:00:00 TS 13.7892 145.684 main 1784 1784 PPP______PPP__ WP191953 13.8646 145.735 47 0 13.5574 145.690 9 998 0 0 13.6797 145.625 3 48 998 13.8646 145.735 TC 47 13.9042 145.584 2 46 13.8646 145.735 47 999 180 9 277
1953285N09161 1953 69 WP MM ALICE 1953-10-14 06:00:00 TS 13.8266 145.271 997 tokyo main 1787 1787 OOO______OPO__ jtwc_wp WP191953 13.9000 145.300 50 0 13.6000 145.300 9 997 0 0 0 13.7000 145.400 3 48 997 13.9000 145.300 TC 50 13.9599 145.027 2 47 13.9000 145.300 50 999 180 9 275
1953285N09161 1953 69 WP MM ALICE 1953-10-14 09:00:00 TS 13.8681 144.808 main 1803 1803 PPP______PPP__ WP191953 13.9578 144.698 50 0 13.6999 145.013 9 996 0 0 13.6499 145.185 3 48 996 13.9578 144.698 TC 50 13.9856 144.556 2 48 13.9578 144.698 50 997 210 8 275
1953285N09161 1953 69 WP MM ALICE 1953-10-14 12:00:00 TS 13.9000 144.433 995 tokyo main 1808 1808 OOO______OOO__ jtwc_wp WP191953 14.0000 144.200 50 0 13.8000 144.800 9 995 0 0 0 13.6000 145.000 3 48 995 14.0000 144.200 TC 50 14.0000 144.200 2 50 14.0000 144.200 50 996 240 6 275
1953285N09161 1953 69 WP MM ALICE 1953-10-14 15:00:00 TS 13.9185 144.243 main 1811 1811 PPP______PPP__ WP191953 13.9998 144.032 55 0 13.8575 144.585 9 990 0 0 13.6350 144.793 3 48 990 13.9998 144.032 TC 55 14.0194 143.981 2 53 13.9998 144.032 54 994 240 3 278
1953285N09161 1953 69 WP MM ALICE 1953-10-14 18:00:00 TS 13.9390 144.145 985 tokyo main 1813 1813 OOO______OPO__ jtwc_wp WP191953 14.0000 144.000 60 0 13.9000 144.400 9 985 0 0 0 13.7000 144.600 3 48 985 14.0000 144.000 TC 60 14.0343 143.872 2 57 14.0000 144.000 58 993 240 2 287
1953285N09161 1953 69 WP MM ALICE 1953-10-14 21:00:00 TS 13.9783 144.033 main 1826 1826 PPP______PPP__ WP191953 14.0425 143.893 62 0 13.9500 144.242 9 982 0 0 13.7350 144.450 3 58 982 14.0425 143.893 TC 62 14.0571 143.828 2 61 14.0425 143.893 61 992 240 2 295
1953285N09161 1953 69 WP MM ALICE 1953-10-15 00:00:00 TS 14.0333 143.933 980 tokyo main 1828 1828 OOO______OOO__ jtwc_wp WP191953 14.1000 143.800 65 1 14.0000 144.100 9 980 0 0 0 13.8000 144.300 4 68 980 14.1000 143.800 TC 65 14.1000 143.800 3 65 14.1000 143.800 65 991 240 2 300
1953285N09161 1953 69 WP MM ALICE 1953-10-15 03:00:00 TS 14.0845 143.846 main 1841 1841 PPP______PPP__ WP191953 14.1350 143.750 65 1 14.0200 143.957 9 979 0 0 13.9200 144.115 4 68 979 14.1350 143.750 TC 65 14.1620 143.754 3 65 14.1350 143.750 65 989 210 2 308
1953285N09161 1953 69 WP MM ALICE 1953-10-15 06:00:00 TS 14.1745 143.752 979 tokyo main 1852 1852 OOO______OPO__ jtwc_wp WP191953 14.2000 143.700 65 1 14.1000 143.800 9 979 0 0 0 14.1000 143.900 4 68 978 14.2000 143.700 TC 65 14.2472 143.710 3 65 14.2000 143.700 65 988 180 3 320
1953285N09161 1953 69 WP MM ALICE 1953-10-15 09:00:00 TS 14.3289 143.635 main 1866 1866 PPP______PPP__ WP191953 14.3199 143.637 65 1 14.3200 143.615 9 978 0 0 14.3350 143.650 4 68 978 14.3199 143.637 TC 65 14.3588 143.635 3 65 14.3199 143.637 65 986 180 5 322
1953285N09161 1953 69 WP MM ALICE 1953-10-15 12:00:00 TS 14.5333 143.467 978 tokyo main 1890 1890 OOO______OOO__ jtwc_wp WP191953 14.5000 143.500 65 1 14.6000 143.400 9 978 0 0 0 14.6000 143.400 4 68 978 14.5000 143.500 TC 65 14.5000 143.500 4 65 14.5000 143.500 65 985 180 6 317
1953285N09161 1953 69 WP MM ALICE 1953-10-15 15:00:00 TS 14.7708 143.214 main 1918 1906 PPP______PPP__ WP191953 14.7501 143.230 67 1 14.8575 143.150 9 978 0 0 14.8574 143.200 4 68 978 14.7501 143.230 TC 67 14.6594 143.245 4 68 14.7501 143.230 68 983 180 7 312
1953285N09161 1953 69 WP MM ALICE 1953-10-15 18:00:00 TS 15.0080 142.922 978 tokyo main 1906 1877 OOO______OPO__ jtwc_wp WP191953 15.0000 142.900 70 1 15.1000 142.900 9 978 0 0 0 15.1000 143.000 4 68 978 15.0000 142.900 TC 70 14.8480 142.930 4 72 15.0000 142.900 72 982 180 7 306
1953285N09161 1953 69 WP MM ALICE 1953-10-15 21:00:00 TS 15.1842 142.632 main 1877 1858 PPP______PPP__ WP191953 15.1425 142.577 75 1 15.3074 142.700 9 978 0 0 15.3075 142.757 4 72 976 15.1425 142.577 TC 75 15.0625 142.601 4 76 15.1425 142.577 76 980 210 6 304
1953285N09161 1953 69 WP MM ALICE 1953-10-16 00:00:00 TS 15.3667 142.367 979 tokyo main 1860 1840 OOO______OOO__ jtwc_wp WP191953 15.3000 142.300 80 1 15.5000 142.500 9 979 0 0 0 15.5000 142.500 4 77 975 15.3000 142.300 TC 80 15.3000 142.300 4 80 15.3000 142.300 80 978 240 6 314
1953285N09161 1953 69 WP MM ALICE 1953-10-16 03:00:00 TS 15.6225 142.161 main 1842 1825 PPP______PPP__ WP191953 15.5849 142.135 82 1 15.7075 142.243 9 979 0 0 15.7075 142.235 4 82 970 15.5849 142.135 TC 82 15.5654 142.085 4 82 15.5849 142.135 82 975 240 6 325
1953285N09161 1953 69 WP MM ALICE 1953-10-16 06:00:00 TS 15.8916 141.984 979 tokyo main 1827 1811 OOO______OPO__ jtwc_wp WP191953 15.9000 142.000 85 2 15.9000 142.000 9 979 0 0 0 15.9000 142.000 5 87 965 15.9000 142.000 TC 85 15.8498 141.905 4 85 15.9000 142.000 85 972 240 6 326
1953285N09161 1953 69 WP MM ALICE 1953-10-16 09:00:00 TS 16.1215 141.807 main 1811 1794 PPP______PPP__ WP191953 16.1650 141.807 87 2 16.0424 141.835 9 979 0 0 16.0574 141.835 5 92 959 16.1650 141.807 TC 87 16.1342 141.747 4 87 16.1650 141.807 87 966 240 6 323
1953285N09161 1953 69 WP MM ALICE 1953-10-16 12:00:00 TS 16.3333 141.633 980 tokyo main 1794 1787 OOO______OOO__ jtwc_wp WP191953 16.4000 141.600 90 2 16.2000 141.700 9 980 0 0 0 16.2000 141.700 5 97 954 16.4000 141.600 TC 90 16.4000 141.600 4 90 16.4000 141.600 90 960 240 5 320
1953285N09161 1953 69 WP MM ALICE 1953-10-16 15:00:00 TS 16.5374 141.441 main 1779 1771 PPP______PPP__ WP191953 16.6075 141.385 90 2 16.4500 141.543 9 970 0 0 16.3425 141.542 5 97 949 16.6075 141.385 TC 90 16.6094 141.406 4 90 16.6075 141.385 90 954 240 5 319
1953285N09161 1953 69 WP MM ALICE 1953-10-16 18:00:00 TS 16.7333 141.271 960 tokyo main 1774 1766 OOO______OPO__ jtwc_wp WP191953 16.8000 141.200 90 2 16.7000 141.400 9 960 0 0 0 16.5000 141.400 5 97 944 16.8000 141.200 TC 90 16.8001 141.225 4 90 16.8000 141.200 90 948 240 5 324
1953285N09161 1953 69 WP MM ALICE 1953-10-16 21:00:00 TS 16.9259 141.146 main 1759 1759 PPP______PPP__ WP191953 17.0000 141.070 90 2 16.8725 141.292 9 950 0 0 16.6925 141.292 5 101 938 17.0000 141.070 TC 90 16.9907 141.081 4 90 17.0000 141.070 90 941 270 4 333
1953285N09161 1953 69 WP MM ALICE 1953-10-17 00:00:00 TS 17.1167 141.067 940 tokyo main 1765 1758 OOO______OOO__ jtwc_wp WP191953 17.2000 141.000 90 2 17.0000 141.200 9 940 0 0 0 16.9000 141.200 6 106 933 17.2000 141.000 TC 90 17.2000 141.000 4 90 17.2000 141.000 90 935 300 4 339
1953285N09161 1953 69 WP MM ALICE 1953-10-17 03:00:00 TS 17.2824 141.005 main 1761 1761 PPP______PPP__ WP191953 17.3775 140.963 90 2 17.0475 141.085 9 930 0 0 17.0775 141.085 6 111 927 17.3775 140.963 TC 90 17.4370 140.974 4 90 17.3775 140.963 90 929 360 4 351
1953285N09161 1953 69 WP MM ALICE 1953-10-17 06:00:00 TS 17.4995 141.003 920 tokyo main 1768 1768 OOO______OPO__ jtwc_wp WP191953 17.6000 141.000 90 2 17.2000 141.000 9 920 0 0 0 17.3000 141.000 6 116 922 17.6000 141.000 TC 90 17.6972 141.016 4 90 17.6000 141.000 90 923 420 6 5
1953285N09161 1953 69 WP MM ALICE 1953-10-17 09:00:00 TS 17.8314 141.053 main 1788 1773 PPP______PPP__ WP191953 17.9274 141.098 90 2 17.6325 140.955 9 920 0 0 17.5899 140.948 6 116 921 17.9274 141.098 TC 90 17.9838 141.124 4 90 17.9274 141.098 90 921 420 8 15
1953285N09161 1953 69 WP MM ALICE 1953-10-17 12:00:00 TS 18.2333 141.200 920 tokyo main 1773 1744 OOO______OOO__ jtwc_wp WP191953 18.3000 141.300 90 2 18.2000 141.000 9 920 0 0 0 18.0000 141.000 6 116 920 18.3000 141.300 TC 90 18.3000 141.300 4 90 18.3000 141.300 90 920 420 9 25
1953285N09161 1953 69 WP MM ALICE 1953-10-17 15:00:00 TS 18.6341 141.455 main 1747 1711 PPP______PPP__ WP191953 18.6426 141.635 90 2 18.7499 141.133 9 917 0 0 18.5700 141.190 6 126 918 18.6426 141.635 TC 90 18.5569 141.505 4 90 18.6426 141.635 90 919 420 10 34
1953285N09161 1953 69 WP MM ALICE 1953-10-17 18:00:00 TS 19.0591 141.779 915 tokyo main 1704 1679 OOO______OPO__ jtwc_wp WP191953 19.0000 142.000 90 2 19.3000 141.400 9 915 0 0 0 19.2000 141.500 6 136 917 19.0000 142.000 TC 90 18.8549 141.776 4 90 19.0000 142.000 90 919 420 10 35
1953285N09161 1953 69 WP MM ALICE 1953-10-17 21:00:00 TS 19.4536 142.072 main 1673 1642 PPP______PPP__ WP191953 19.3097 142.229 90 2 19.7924 141.790 9 915 0 0 19.7498 141.848 6 136 917 19.3097 142.229 TC 90 19.2504 142.109 4 90 19.3097 142.229 90 918 420 11 34
1953285N09161 1953 69 WP MM ALICE 1953-10-18 00:00:00 TS 19.9667 142.433 915 tokyo main 1632 1581 OOO______OOO__ jtwc_wp WP191953 19.8000 142.500 90 2 20.3000 142.300 9 915 0 0 0 20.3000 142.300 6 136 917 19.8000 142.500 TC 90 19.8000 142.500 4 90 19.8000 142.500 90 917 420 15 33
1953285N09161 1953 69 WP MM ALICE 1953-10-18 03:00:00 TS 20.7108 142.944 main 1581 1524 PPP______PPP__ WP191953 20.6752 142.962 90 2 20.8476 142.885 9 915 0 0 20.8553 142.893 6 126 921 20.6752 142.962 TC 90 20.5361 143.000 4 91 20.6752 142.962 90 916 420 19 32
1953285N09161 1953 69 WP MM ALICE 1953-10-18 06:00:00 TS 21.5879 143.508 915 tokyo main 1519 1451 OOO______OPO__ jtwc_wp WP191953 21.7000 143.500 90 2 21.5000 143.500 9 915 0 0 0 21.5000 143.500 6 116 925 21.7000 143.500 TC 90 21.4276 143.547 4 92 21.7000 143.500 90 916 420 20 31
1953285N09161 1953 69 WP MM ALICE 1953-10-18 09:00:00 TS 22.4485 144.059 main 1453 1369 PPP______PPP__ WP191953 22.5702 144.052 92 2 22.2752 144.110 9 917 0 0 22.2750 144.017 6 111 930 22.5702 144.052 TC 92 22.4301 144.071 4 93 22.5702 144.052 92 922 420 20 27
1953285N09161 1953 69 WP MM ALICE 1953-10-18 12:00:00 TS 23.4000 144.500 920 tokyo main 1358 1259 OOO______OOO__ jtwc_wp WP191953 23.5000 144.500 95 2 23.2000 144.600 9 920 0 0 0 23.2000 144.400 6 106 935 23.5000 144.500 TC 95 23.5000 144.500 4 95 23.5000 144.500 95 929 420 21 17
1953285N09161 1953 69 WP MM ALICE 1953-10-18 15:00:00 TS 24.4850 144.717 main 1249 1138 PPP______PPP__ WP191953 24.6198 144.711 97 3 24.2323 144.883 9 920 0 0 24.2324 144.603 6 101 940 24.6198 144.711 TC 97 24.5861 144.680 4 96 24.6198 144.711 97 936 450 23 7
1953285N09161 1953 69 WP MM ALICE 1953-10-18 18:00:00 TS 25.6542 144.810 920 tokyo main 1128 1021 OOO______OPO__ jtwc_wp WP191953 25.8000 144.800 100 3 25.4000 145.000 9 920 0 0 0 25.4000 144.700 5 97 945 25.8000 144.800 TC 100 25.7253 144.762 4 97 25.8000 144.800 100 943 480 23 3
1953285N09161 1953 69 WP MM ALICE 1953-10-18 21:00:00 TS 26.8169 144.869 main 1021 917 PPP______PPP__ WP191953 26.8924 144.886 100 3 26.6698 144.966 9 937 0 0 26.6772 144.750 5 92 950 26.8924 144.886 TC 100 26.8769 144.837 4 98 26.8924 144.886 100 948 480 24 4
1953285N09161 1953 69 WP MM ALICE 1953-10-19 00:00:00 TS 28.0000 144.983 955 tokyo main 908 806 OOO______OOO__ jtwc_wp WP191953 28.0000 145.000 100 3 28.0000 145.000 9 955 0 0 0 28.0000 144.900 5 87 955 28.0000 145.000 TC 100 28.0000 145.000 4 100 28.0000 145.000 100 953 480 25 8
1953285N09161 1953 69 WP MM ALICE 1953-10-19 03:00:00 TS 29.2422 145.249 main 806 730 PPP______PPP__ WP191953 29.2443 145.154 95 2 29.3747 145.344 9 955 0 0 29.3173 145.309 5 87 955 29.2443 145.154 TC 95 29.0282 145.380 4 96 29.2443 145.154 96 953 480 25 15
1953285N09161 1953 69 WP MM ALICE 1953-10-19 06:00:00 TS 30.3872 145.694 955 tokyo main 728 706 OOO______OPO__ jtwc_wp WP191953 30.4000 145.500 90 2 30.6000 145.900 9 955 0 0 0 30.5000 145.900 5 87 955 30.4000 145.500 TC 90 30.0230 145.865 4 92 30.4000 145.500 92 953 480 22 26
1953285N09161 1953 69 WP MM ALICE 1953-10-19 09:00:00 TS 31.2604 146.369 main 706 696 PPP______PPP__ WP191953 31.2310 146.205 87 2 31.4604 146.586 9 955 0 0 31.4028 146.593 5 87 955 31.2310 146.205 TC 87 31.0062 146.419 4 88 31.2310 146.205 88 955 480 21 36
1953285N09161 1953 69 WP MM ALICE 1953-10-19 12:00:00 TS 32.0667 147.100 955 tokyo main 697 688 OOO______OOO__ jtwc_wp WP191953 32.0000 147.000 85 2 32.2000 147.300 9 955 0 0 0 32.2000 147.300 5 87 955 32.0000 147.000 TC 85 32.0000 147.000 4 85 32.0000 147.000 85 957 480 21 32
1953285N09161 1953 69 WP MM ALICE 1953-10-19 15:00:00 TS 33.0128 147.686 main 691 684 PPP______PPP__ WP191953 32.9543 147.575 77 1 33.0772 147.896 9 955 0 0 33.1149 147.917 5 82 955 32.9543 147.575 TC 77 33.0219 147.576 4 82 32.9543 147.575 77 958 480 22 26
1953285N09161 1953 69 WP MM ALICE 1953-10-19 18:00:00 TS 34.0090 148.210 955 tokyo main 690 687 OOO______OPO__ jtwc_wp WP191953 34.0000 148.100 70 1 34.0000 148.400 9 955 0 0 0 34.0000 148.400 4 77 955 34.0000 148.100 TC 70 34.0687 148.147 4 80 34.0000 148.100 70 960 480 23 23
1953285N09161 1953 69 WP MM ALICE 1953-10-19 21:00:00 TS 35.0829 148.748 main 708 708 PPP______PPP__ WP191953 35.2054 148.750 72 1 35.0022 148.838 9 955 0 0 34.7718 148.668 4 77 955 35.2054 148.750 TC 72 35.1313 148.719 4 77 35.2054 148.750 72 960 480 22 22
1953285N09161 1953 69 WP MM ALICE 1953-10-20 00:00:00 TS 36.0000 149.200 955 tokyo main 727 719 OOO______OOO__ jtwc_wp WP191953 36.2000 149.300 75 1 35.9000 149.200 9 955 0 0 0 35.5000 148.900 4 77 955 36.2000 149.300 TC 75 36.2000 149.300 4 75 36.2000 149.300 75 961 480 15 21
1953285N09161 1953 69 WP MM ALICE 1953-10-20 03:00:00 TS 36.4802 149.419 main 719 719 PPP______P_P__ WP191953 36.5276 149.425 70 1 36.5016 149.458 9 955 0 0 36.2721 149.283 4 72 955 36.5276 149.425 TC 70 4 36.6645 149.585 70 956 480 10 26
1953285N09161 1953 69 WP MM ALICE 1953-10-20 06:00:00 TS 36.8941 149.747 955 tokyo main 722 722 OOO______O_O__ jtwc_wp WP191953 36.8000 149.700 65 1 37.0000 149.800 9 955 0 0 0 37.0000 149.800 4 68 955 36.8000 149.700 TC 65 4 36.8000 149.700 65 951 480 14 34
1953285N09161 1953 69 WP MM ALICE 1953-10-20 09:00:00 TS 37.6617 150.399 main 738 726 PPP______P____ WP191953 37.7016 150.391 65 1 37.6070 150.395 9 960 0 0 37.6367 150.419 4 68 960 37.7016 150.391 TC 65 4 21 44
1953285N09161 1953 69 WP MM ALICE 1953-10-20 12:00:00 TS 38.4000 151.600 965 tokyo main 739 739 OOO______O____ jtwc_wp WP191953 38.6000 152.000 65 1 38.2000 151.200 9 965 0 0 0 38.2000 151.200 4 68 965 38.6000 152.000 TC 65 28 65
1953285N09161 1953 69 WP MM ALICE 1953-10-20 15:00:00 TS 38.8280 153.661 main 824 820 PPP______P____ WP191953 38.9268 155.203 62 0 38.7291 152.119 9 965 0 0 38.7291 152.119 4 68 965 38.9268 155.203 TC 62 34 78
1953285N09161 1953 69 WP MM ALICE 1953-10-20 18:00:00 TS 39.1000 155.850 965 tokyo main 882 882 OOO______O____ jtwc_wp WP191953 39.0000 158.500 60 0 39.2000 153.200 9 965 0 0 0 39.2000 153.200 4 68 965 39.0000 158.500 TC 60 29 77
1953285N09161 1953 69 WP MM ALICE 1953-10-20 21:00:00 TS 39.4651 157.364 main 923 923 PPP______P____ WP191953 39.2458 160.448 60 0 39.6846 154.283 9 967 0 0 39.6842 154.276 4 68 967 39.2458 160.448 TC 60 22 73
1953285N09161 1953 69 WP MM ALICE 1953-10-21 00:00:00 TS 39.7500 158.600 970 tokyo main 962 968 OOO______O____ jtwc_wp WP191953 39.5000 161.500 60 0 40.0000 155.700 9 970 0 0 0 40.0000 155.700 4 68 970 39.5000 161.500 TC 60 19 79
1953285N09161 1953 69 WP MM ALICE 1953-10-21 03:00:00 TS 39.8325 159.826 main 1033 1033 PPP______P____ WP191953 39.6683 161.865 57 0 39.9961 157.759 9 970 0 0 39.9972 157.817 4 68 970 39.6683 161.865 TC 57 18 88
1953285N09161 1953 69 WP MM ALICE 1953-10-21 06:00:00 TS 39.8000 160.975 970 tokyo main 1107 1107 OOO______O____ jtwc_wp WP191953 39.8000 162.000 55 0 39.8000 159.900 9 970 0 0 0 39.8000 160.000 4 68 970 39.8000 162.000 TC 55 17 93
1953285N09161 1953 69 WP MM ALICE 1953-10-21 09:00:00 TS 39.7445 162.029 main 1178 1178 PPP______P____ WP191953 39.8813 162.527 52 0 39.6080 161.502 9 970 0 0 39.6072 161.559 4 68 970 39.8813 162.527 TC 52 17 93
1953285N09161 1953 69 WP MM ALICE 1953-10-21 12:00:00 TS 39.7000 163.250 970 tokyo main 1263 1263 OOO______O____ jtwc_wp WP191953 40.0000 163.500 50 0 39.4000 163.000 9 970 0 0 0 39.4000 163.000 4 68 970 40.0000 163.500 TC 50 22 90
1953285N09161 1953 69 WP MM ALICE 1953-10-21 15:00:00 TS 39.7442 164.943 main 1361 1361 PPP______P____ WP191953 40.3052 165.093 47 0 39.1793 164.796 9 975 0 0 39.1871 164.788 4 63 975 40.3052 165.093 TC 47 27 89
1953285N09161 1953 69 WP MM ALICE 1953-10-21 18:00:00 TS 39.7500 166.750 980 tokyo main 1433 1443 OOO______O____ jtwc_wp WP191953 40.5000 167.000 45 0 39.0000 166.500 9 980 0 0 0 39.0000 166.500 3 58 980 40.5000 167.000 TC 45 26 93
1953285N09161 1953 69 WP MM ALICE 1953-10-21 21:00:00 TS 39.6116 168.270 main 1523 1523 PPP______P____ WP191953 40.3222 168.755 42 0 38.9297 167.785 9 981 0 0 38.8722 167.786 3 53 981 40.3222 168.755 TC 42 23 98
1953285N09161 1953 69 WP MM ALICE 1953-10-22 00:00:00 TS 39.4250 169.750 982 tokyo main 1617 1617 OOO______O____ jtwc_wp WP191953 40.0000 170.500 40 0 38.9000 169.000 9 982 0 0 0 38.8000 169.000 3 48 982 40.0000 170.500 TC 40 24 99
1953285N09161 1953 69 WP MM ALICE 1953-10-22 03:00:00 TS 39.2254 171.321 main 1715 1715 PPP______P____ WP191953 39.6913 172.178 40 0 38.7845 170.464 9 983 0 0 38.7345 170.463 3 48 982 39.6913 172.178 TC 40 25 97
1953285N09161 1953 69 WP MM ALICE 1953-10-22 06:00:00 TS 39.1000 173.000 985 tokyo main 1812 1812 OOO______O____ jtwc_wp WP191953 39.5000 174.000 40 0 38.7000 172.000 9 985 0 0 0 38.7000 172.000 3 48 982 39.5000 174.000 TC 40 27 92
1953285N09161 1953 69 WP MM ALICE 1953-10-22 09:00:00 TS 39.1171 174.844 main 1903 1860 PPP______P____ WP191953 39.5419 176.209 40 0 38.7172 173.477 9 985 0 0 38.6672 173.479 3 48 983 39.5419 176.209 TC 40 30 87
1953285N09161 1953 69 WP MM ALICE 1953-10-22 12:00:00 TS 39.2600 176.867 985 tokyo main 1855 1766 OOO______O____ jtwc_wp WP191953 39.7000 178.500 40 0 38.8000 175.000 9 985 0 0 0 38.7000 175.000 3 48 985 39.7000 178.500 TC 40 32 85
1953285N09161 1953 69 WP MM ALICE 1953-10-22 15:00:00 TS 39.3997 178.923 main 1762 1663 PPP______P____ WP191953 39.7896 -179.348 37 0 38.9058 176.619 9 985 0 0 38.8279 176.617 3 48 985 39.7896 -179.348 TC 37 33 83
1953285N09161 1953 69 EP CP ALICE 1953-10-22 18:00:00 TS 39.6667 181.100 985 tokyo main 1650 1537 OOO______O____ jtwc_wp WP191953 40.0000 -177.500 35 0 39.0000 178.300 9 985 0 0 0 39.0000 178.300 3 48 985 40.0000 182.500 TC 35 33 76
1953285N09161 1953 69 EP CP ALICE 1953-10-22 21:00:00 TS 40.1828 183.088 main 1534 1440 PP_______P____ WP191953 40.4717 -176.139 40 0 39.0272 179.999 9 986 0 0 3 40.4717 -176.139 TC 40 29 68
1953285N09161 1953 69 EP CP ALICE 1953-10-23 00:00:00 MX 40.7778 184.633 main 1429 1341 OO_______O____ jtwc_wp WP191953 41.0000 -175.000 45 0 39.0000 181.700 6 988 0 0 0 41.0000 185.000 TC 45 26 64
1953285N09161 1953 69 EP CP ALICE 1953-10-23 03:00:00 TS 41.3034 186.181 main 1339 1284 P________P____ WP191953 41.3034 -173.819 47 0 6 0 0 41.3034 -173.819 TC 47 23 69
1953285N09161 1953 69 EP CP ALICE 1953-10-23 06:00:00 TS 41.6000 187.500 main 1283 1220 O________O____ jtwc_wp WP191953 41.6000 -172.500 50 0 41.6000 187.500 TC 50 23 72
1953285N09161 1953 69 EP CP ALICE 1953-10-23 09:00:00 TS 42.0181 189.141 main 1219 1154 P________P____ WP191953 42.0181 -170.859 55 0 42.0181 -170.859 TC 55 27 71
1953285N09161 1953 69 EP CP ALICE 1953-10-23 12:00:00 TS 42.5000 191.000 main 1154 O________O____ jtwc_wp WP191953 42.5000 -169.000 60 0 42.5000 191.000 TC 60 29 71

デジタル台風データ・検索

IBTrACS Databaseについて

本データベースは、米国NOAAが公開する1842年以降の世界の熱帯低気圧のベストトラックデータアーカイブInternational Best Track Archive for Climate Stewardship (IBTrACS)を、ウェブで閲覧しやすい形式に変換したものです。

最終更新日:2021-10-25